sensor_id;sensor_type;location;lat;lon;timestamp;P1;durP1;ratioP1;P2;durP2;ratioP2
10657;SDS011;5377;43.276;26.930;2023-03-01T00:00:03;10.97;;;9.87;;
10657;SDS011;5377;43.276;26.930;2023-03-01T00:02:32;10.50;;;8.70;;
10657;SDS011;5377;43.276;26.930;2023-03-01T00:05:00;10.17;;;8.37;;
10657;SDS011;5377;43.276;26.930;2023-03-01T00:07:27;8.73;;;7.93;;
10657;SDS011;5377;43.276;26.930;2023-03-01T00:09:53;9.03;;;7.70;;
10657;SDS011;5377;43.276;26.930;2023-03-01T00:12:20;9.23;;;8.23;;
10657;SDS011;5377;43.276;26.930;2023-03-01T00:14:47;9.13;;;7.73;;
10657;SDS011;5377;43.276;26.930;2023-03-01T00:17:14;11.13;;;8.50;;
10657;SDS011;5377;43.276;26.930;2023-03-01T00:19:41;9.40;;;7.40;;
10657;SDS011;5377;43.276;26.930;2023-03-01T00:22:09;10.20;;;8.03;;
10657;SDS011;5377;43.276;26.930;2023-03-01T00:24:36;9.43;;;7.27;;
10657;SDS011;5377;43.276;26.930;2023-03-01T00:27:02;9.20;;;6.97;;
10657;SDS011;5377;43.276;26.930;2023-03-01T00:29:29;9.63;;;7.87;;
10657;SDS011;5377;43.276;26.930;2023-03-01T00:31:56;9.93;;;7.77;;
10657;SDS011;5377;43.276;26.930;2023-03-01T00:34:23;9.90;;;7.80;;
10657;SDS011;5377;43.276;26.930;2023-03-01T00:36:50;10.30;;;7.27;;
10657;SDS011;5377;43.276;26.930;2023-03-01T00:39:18;9.30;;;7.27;;
10657;SDS011;5377;43.276;26.930;2023-03-01T00:41:45;8.37;;;7.13;;
10657;SDS011;5377;43.276;26.930;2023-03-01T00:44:11;8.87;;;7.33;;
10657;SDS011;5377;43.276;26.930;2023-03-01T00:46:38;8.33;;;7.23;;
10657;SDS011;5377;43.276;26.930;2023-03-01T00:49:05;8.90;;;7.57;;
10657;SDS011;5377;43.276;26.930;2023-03-01T00:51:32;9.23;;;7.20;;
10657;SDS011;5377;43.276;26.930;2023-03-01T00:54:00;8.00;;;6.87;;
10657;SDS011;5377;43.276;26.930;2023-03-01T00:56:30;8.87;;;7.40;;
10657;SDS011;5377;43.276;26.930;2023-03-01T00:58:57;9.30;;;7.23;;
10657;SDS011;5377;43.276;26.930;2023-03-01T01:01:24;7.47;;;6.47;;
10657;SDS011;5377;43.276;26.930;2023-03-01T01:03:56;7.87;;;7.07;;
10657;SDS011;5377;43.276;26.930;2023-03-01T01:06:24;8.83;;;6.40;;
10657;SDS011;5377;43.276;26.930;2023-03-01T01:08:52;6.97;;;5.83;;
10657;SDS011;5377;43.276;26.930;2023-03-01T01:11:20;8.97;;;6.60;;
10657;SDS011;5377;43.276;26.930;2023-03-01T01:13:49;8.40;;;6.73;;
10657;SDS011;5377;43.276;26.930;2023-03-01T01:16:17;8.00;;;6.93;;
10657;SDS011;5377;43.276;26.930;2023-03-01T01:18:45;7.10;;;5.90;;
10657;SDS011;5377;43.276;26.930;2023-03-01T01:21:13;6.80;;;6.10;;
10657;SDS011;5377;43.276;26.930;2023-03-01T01:23:42;7.10;;;5.97;;
10657;SDS011;5377;43.276;26.930;2023-03-01T01:26:11;12.77;;;8.30;;
10657;SDS011;5377;43.276;26.930;2023-03-01T01:28:39;8.17;;;6.97;;
10657;SDS011;5377;43.276;26.930;2023-03-01T01:31:07;7.90;;;6.37;;
10657;SDS011;5377;43.276;26.930;2023-03-01T01:33:34;7.23;;;5.60;;
10657;SDS011;5377;43.276;26.930;2023-03-01T01:36:02;8.80;;;7.90;;
10657;SDS011;5377;43.276;26.930;2023-03-01T01:38:30;7.50;;;6.63;;
10657;SDS011;5377;43.276;26.930;2023-03-01T01:40:57;7.60;;;6.67;;
10657;SDS011;5377;43.276;26.930;2023-03-01T01:43:24;6.40;;;5.80;;
10657;SDS011;5377;43.276;26.930;2023-03-01T01:45:53;6.27;;;3.80;;
10657;SDS011;5377;43.276;26.930;2023-03-01T01:48:24;4.97;;;4.47;;
10657;SDS011;5377;43.276;26.930;2023-03-01T01:51:05;5.50;;;4.57;;
10657;SDS011;5377;43.276;26.930;2023-03-01T01:53:36;4.77;;;4.10;;
10657;SDS011;5377;43.276;26.930;2023-03-01T01:56:05;4.67;;;4.10;;
10657;SDS011;5377;43.276;26.930;2023-03-01T01:58:35;4.60;;;3.73;;
10657;SDS011;5377;43.276;26.930;2023-03-01T02:01:03;4.50;;;4.00;;
10657;SDS011;5377;43.276;26.930;2023-03-01T02:03:32;6.17;;;5.07;;
10657;SDS011;5377;43.276;26.930;2023-03-01T02:06:03;4.60;;;4.20;;
10657;SDS011;5377;43.276;26.930;2023-03-01T02:08:34;7.77;;;5.63;;
10657;SDS011;5377;43.276;26.930;2023-03-01T02:11:03;5.47;;;4.93;;
10657;SDS011;5377;43.276;26.930;2023-03-01T02:13:30;5.30;;;4.73;;
10657;SDS011;5377;43.276;26.930;2023-03-01T02:15:58;5.60;;;4.57;;
10657;SDS011;5377;43.276;26.930;2023-03-01T02:18:29;5.50;;;5.00;;
10657;SDS011;5377;43.276;26.930;2023-03-01T02:21:00;5.87;;;5.27;;
10657;SDS011;5377;43.276;26.930;2023-03-01T02:23:34;8.30;;;5.93;;
10657;SDS011;5377;43.276;26.930;2023-03-01T02:26:04;6.37;;;5.77;;
10657;SDS011;5377;43.276;26.930;2023-03-01T02:28:40;7.27;;;5.00;;
10657;SDS011;5377;43.276;26.930;2023-03-01T02:31:10;6.20;;;5.60;;
10657;SDS011;5377;43.276;26.930;2023-03-01T02:33:58;5.77;;;5.10;;
10657;SDS011;5377;43.276;26.930;2023-03-01T02:36:30;6.07;;;5.47;;
10657;SDS011;5377;43.276;26.930;2023-03-01T02:39:00;5.37;;;4.87;;
10657;SDS011;5377;43.276;26.930;2023-03-01T02:41:31;6.27;;;5.30;;
10657;SDS011;5377;43.276;26.930;2023-03-01T02:44:04;6.53;;;5.40;;
10657;SDS011;5377;43.276;26.930;2023-03-01T02:46:31;5.20;;;4.50;;
10657;SDS011;5377;43.276;26.930;2023-03-01T02:48:58;7.70;;;5.33;;
10657;SDS011;5377;43.276;26.930;2023-03-01T02:51:40;7.13;;;5.33;;
10657;SDS011;5377;43.276;26.930;2023-03-01T02:54:13;5.67;;;4.67;;
10657;SDS011;5377;43.276;26.930;2023-03-01T02:56:47;6.10;;;5.43;;
10657;SDS011;5377;43.276;26.930;2023-03-01T02:59:16;7.30;;;5.43;;
10657;SDS011;5377;43.276;26.930;2023-03-01T03:01:47;6.43;;;4.40;;
10657;SDS011;5377;43.276;26.930;2023-03-01T03:04:14;6.93;;;4.93;;
10657;SDS011;5377;43.276;26.930;2023-03-01T03:06:43;7.03;;;5.20;;
10657;SDS011;5377;43.276;26.930;2023-03-01T03:09:11;8.00;;;5.90;;
10657;SDS011;5377;43.276;26.930;2023-03-01T03:11:38;8.67;;;6.20;;
10657;SDS011;5377;43.276;26.930;2023-03-01T03:14:06;7.77;;;5.80;;
10657;SDS011;5377;43.276;26.930;2023-03-01T03:16:39;7.93;;;5.97;;
10657;SDS011;5377;43.276;26.930;2023-03-01T03:19:07;8.03;;;6.00;;
10657;SDS011;5377;43.276;26.930;2023-03-01T03:21:34;7.53;;;5.37;;
10657;SDS011;5377;43.276;26.930;2023-03-01T03:24:01;9.40;;;5.83;;
10657;SDS011;5377;43.276;26.930;2023-03-01T03:26:28;8.20;;;6.53;;
10657;SDS011;5377;43.276;26.930;2023-03-01T03:28:55;8.13;;;6.03;;
10657;SDS011;5377;43.276;26.930;2023-03-01T03:31:22;9.93;;;6.70;;
10657;SDS011;5377;43.276;26.930;2023-03-01T03:33:50;9.73;;;6.20;;
10657;SDS011;5377;43.276;26.930;2023-03-01T03:36:18;9.00;;;6.90;;
10657;SDS011;5377;43.276;26.930;2023-03-01T03:38:46;10.73;;;7.20;;
10657;SDS011;5377;43.276;26.930;2023-03-01T03:41:13;10.87;;;7.33;;
10657;SDS011;5377;43.276;26.930;2023-03-01T03:43:41;7.57;;;6.73;;
10657;SDS011;5377;43.276;26.930;2023-03-01T03:46:09;8.30;;;6.80;;
10657;SDS011;5377;43.276;26.930;2023-03-01T03:48:37;9.47;;;6.20;;
10657;SDS011;5377;43.276;26.930;2023-03-01T03:51:07;9.07;;;7.80;;
10657;SDS011;5377;43.276;26.930;2023-03-01T03:53:37;9.13;;;6.80;;
10657;SDS011;5377;43.276;26.930;2023-03-01T03:56:04;9.27;;;7.23;;
10657;SDS011;5377;43.276;26.930;2023-03-01T03:58:32;9.10;;;7.17;;
10657;SDS011;5377;43.276;26.930;2023-03-01T04:00:59;9.37;;;7.60;;
10657;SDS011;5377;43.276;26.930;2023-03-01T04:03:27;8.30;;;6.90;;
10657;SDS011;5377;43.276;26.930;2023-03-01T04:05:56;11.80;;;6.57;;
10657;SDS011;5377;43.276;26.930;2023-03-01T04:08:25;10.47;;;7.20;;
10657;SDS011;5377;43.276;26.930;2023-03-01T04:10:52;8.37;;;7.13;;
10657;SDS011;5377;43.276;26.930;2023-03-01T04:13:24;11.23;;;7.57;;
10657;SDS011;5377;43.276;26.930;2023-03-01T04:15:51;9.67;;;7.80;;
10657;SDS011;5377;43.276;26.930;2023-03-01T04:18:19;9.53;;;7.60;;
10657;SDS011;5377;43.276;26.930;2023-03-01T04:20:47;10.07;;;7.80;;
10657;SDS011;5377;43.276;26.930;2023-03-01T04:23:19;9.07;;;7.77;;
10657;SDS011;5377;43.276;26.930;2023-03-01T04:25:49;11.77;;;8.50;;
10657;SDS011;5377;43.276;26.930;2023-03-01T04:28:19;9.73;;;7.90;;
10657;SDS011;5377;43.276;26.930;2023-03-01T04:30:47;10.30;;;8.57;;
10657;SDS011;5377;43.276;26.930;2023-03-01T04:33:14;10.57;;;8.70;;
10657;SDS011;5377;43.276;26.930;2023-03-01T04:35:40;10.23;;;8.37;;
10657;SDS011;5377;43.276;26.930;2023-03-01T04:38:08;10.40;;;7.83;;
10657;SDS011;5377;43.276;26.930;2023-03-01T04:40:35;11.37;;;9.00;;
10657;SDS011;5377;43.276;26.930;2023-03-01T04:43:05;11.07;;;9.23;;
10657;SDS011;5377;43.276;26.930;2023-03-01T04:45:33;11.07;;;8.87;;
10657;SDS011;5377;43.276;26.930;2023-03-01T04:48:00;12.50;;;9.60;;
10657;SDS011;5377;43.276;26.930;2023-03-01T04:50:28;11.97;;;9.20;;
10657;SDS011;5377;43.276;26.930;2023-03-01T04:52:55;11.80;;;9.90;;
10657;SDS011;5377;43.276;26.930;2023-03-01T04:55:23;13.87;;;8.83;;
10657;SDS011;5377;43.276;26.930;2023-03-01T04:57:51;13.53;;;9.27;;
10657;SDS011;5377;43.276;26.930;2023-03-01T05:00:19;17.17;;;12.33;;
10657;SDS011;5377;43.276;26.930;2023-03-01T05:02:48;12.00;;;9.27;;
10657;SDS011;5377;43.276;26.930;2023-03-01T05:05:19;12.57;;;9.07;;
10657;SDS011;5377;43.276;26.930;2023-03-01T05:07:50;12.03;;;9.80;;
10657;SDS011;5377;43.276;26.930;2023-03-01T05:10:18;12.20;;;9.57;;
10657;SDS011;5377;43.276;26.930;2023-03-01T05:12:45;14.33;;;10.70;;
10657;SDS011;5377;43.276;26.930;2023-03-01T05:15:11;22.37;;;17.23;;
10657;SDS011;5377;43.276;26.930;2023-03-01T05:17:40;13.77;;;10.57;;
10657;SDS011;5377;43.276;26.930;2023-03-01T05:20:08;13.67;;;10.83;;
10657;SDS011;5377;43.276;26.930;2023-03-01T05:22:35;13.70;;;10.53;;
10657;SDS011;5377;43.276;26.930;2023-03-01T05:25:03;14.93;;;10.53;;
10657;SDS011;5377;43.276;26.930;2023-03-01T05:27:30;14.27;;;10.70;;
10657;SDS011;5377;43.276;26.930;2023-03-01T05:29:57;16.13;;;11.30;;
10657;SDS011;5377;43.276;26.930;2023-03-01T05:32:24;14.00;;;11.60;;
10657;SDS011;5377;43.276;26.930;2023-03-01T05:34:52;15.93;;;11.47;;
10657;SDS011;5377;43.276;26.930;2023-03-01T05:37:20;16.73;;;12.30;;
10657;SDS011;5377;43.276;26.930;2023-03-01T05:39:47;14.93;;;11.57;;
10657;SDS011;5377;43.276;26.930;2023-03-01T05:42:15;16.20;;;13.47;;
10657;SDS011;5377;43.276;26.930;2023-03-01T05:44:42;15.90;;;11.87;;
10657;SDS011;5377;43.276;26.930;2023-03-01T05:47:09;16.77;;;11.73;;
10657;SDS011;5377;43.276;26.930;2023-03-01T05:49:36;16.13;;;12.87;;
10657;SDS011;5377;43.276;26.930;2023-03-01T05:52:04;18.23;;;13.17;;
10657;SDS011;5377;43.276;26.930;2023-03-01T05:54:31;15.50;;;12.27;;
10657;SDS011;5377;43.276;26.930;2023-03-01T05:56:58;16.40;;;12.83;;
10657;SDS011;5377;43.276;26.930;2023-03-01T05:59:25;19.97;;;14.37;;
10657;SDS011;5377;43.276;26.930;2023-03-01T06:01:51;20.20;;;12.97;;
10657;SDS011;5377;43.276;26.930;2023-03-01T06:04:18;19.13;;;14.43;;
10657;SDS011;5377;43.276;26.930;2023-03-01T06:06:46;14.77;;;12.77;;
10657;SDS011;5377;43.276;26.930;2023-03-01T06:09:14;17.93;;;14.13;;
10657;SDS011;5377;43.276;26.930;2023-03-01T06:11:41;27.23;;;19.80;;
10657;SDS011;5377;43.276;26.930;2023-03-01T06:14:07;28.60;;;20.20;;
10657;SDS011;5377;43.276;26.930;2023-03-01T06:16:35;46.27;;;33.27;;
10657;SDS011;5377;43.276;26.930;2023-03-01T06:19:02;29.37;;;22.20;;
10657;SDS011;5377;43.276;26.930;2023-03-01T06:21:29;24.07;;;18.53;;
10657;SDS011;5377;43.276;26.930;2023-03-01T06:23:56;18.23;;;12.40;;
10657;SDS011;5377;43.276;26.930;2023-03-01T06:26:24;18.83;;;13.90;;
10657;SDS011;5377;43.276;26.930;2023-03-01T06:28:51;17.67;;;14.60;;
10657;SDS011;5377;43.276;26.930;2023-03-01T06:31:17;17.93;;;13.10;;
10657;SDS011;5377;43.276;26.930;2023-03-01T06:33:44;16.97;;;13.80;;
10657;SDS011;5377;43.276;26.930;2023-03-01T06:36:11;16.53;;;13.07;;
10657;SDS011;5377;43.276;26.930;2023-03-01T06:38:38;19.67;;;14.43;;
10657;SDS011;5377;43.276;26.930;2023-03-01T06:41:05;18.03;;;13.97;;
10657;SDS011;5377;43.276;26.930;2023-03-01T06:43:34;19.10;;;14.20;;
10657;SDS011;5377;43.276;26.930;2023-03-01T06:46:03;19.53;;;14.90;;
10657;SDS011;5377;43.276;26.930;2023-03-01T06:48:31;18.07;;;14.17;;
10657;SDS011;5377;43.276;26.930;2023-03-01T06:50:58;18.10;;;14.33;;
10657;SDS011;5377;43.276;26.930;2023-03-01T06:53:25;22.23;;;14.60;;
10657;SDS011;5377;43.276;26.930;2023-03-01T06:55:53;14.50;;;12.30;;
10657;SDS011;5377;43.276;26.930;2023-03-01T06:58:21;17.03;;;13.40;;
10657;SDS011;5377;43.276;26.930;2023-03-01T07:00:49;15.70;;;12.30;;
10657;SDS011;5377;43.276;26.930;2023-03-01T07:03:16;19.37;;;14.67;;
10657;SDS011;5377;43.276;26.930;2023-03-01T07:05:43;19.17;;;13.87;;
10657;SDS011;5377;43.276;26.930;2023-03-01T07:08:10;19.40;;;14.60;;
10657;SDS011;5377;43.276;26.930;2023-03-01T07:10:37;26.57;;;15.90;;
10657;SDS011;5377;43.276;26.930;2023-03-01T07:13:04;28.07;;;17.43;;
10657;SDS011;5377;43.276;26.930;2023-03-01T07:15:32;41.37;;;30.90;;
10657;SDS011;5377;43.276;26.930;2023-03-01T07:18:00;31.27;;;22.33;;
10657;SDS011;5377;43.276;26.930;2023-03-01T07:20:27;32.30;;;21.13;;
10657;SDS011;5377;43.276;26.930;2023-03-01T07:22:54;37.07;;;26.00;;
10657;SDS011;5377;43.276;26.930;2023-03-01T07:25:21;28.07;;;19.33;;
10657;SDS011;5377;43.276;26.930;2023-03-01T07:27:49;29.70;;;20.53;;
10657;SDS011;5377;43.276;26.930;2023-03-01T07:30:17;22.73;;;17.20;;
10657;SDS011;5377;43.276;26.930;2023-03-01T07:32:44;27.03;;;20.60;;
10657;SDS011;5377;43.276;26.930;2023-03-01T07:35:13;27.87;;;19.10;;
10657;SDS011;5377;43.276;26.930;2023-03-01T07:37:40;22.97;;;15.57;;
10657;SDS011;5377;43.276;26.930;2023-03-01T07:40:08;22.60;;;15.30;;
10657;SDS011;5377;43.276;26.930;2023-03-01T07:42:35;20.47;;;15.17;;
10657;SDS011;5377;43.276;26.930;2023-03-01T07:45:02;22.43;;;15.90;;
10657;SDS011;5377;43.276;26.930;2023-03-01T07:47:30;21.23;;;16.27;;
10657;SDS011;5377;43.276;26.930;2023-03-01T07:49:57;24.67;;;16.40;;
10657;SDS011;5377;43.276;26.930;2023-03-01T07:52:25;20.87;;;16.20;;
10657;SDS011;5377;43.276;26.930;2023-03-01T07:54:52;19.60;;;15.17;;
10657;SDS011;5377;43.276;26.930;2023-03-01T07:57:19;28.83;;;24.27;;
10657;SDS011;5377;43.276;26.930;2023-03-01T07:59:45;27.50;;;21.97;;
10657;SDS011;5377;43.276;26.930;2023-03-01T08:02:12;27.40;;;20.93;;
10657;SDS011;5377;43.276;26.930;2023-03-01T08:04:40;17.30;;;14.33;;
10657;SDS011;5377;43.276;26.930;2023-03-01T08:07:07;22.53;;;15.73;;
10657;SDS011;5377;43.276;26.930;2023-03-01T08:09:35;19.23;;;15.27;;
10657;SDS011;5377;43.276;26.930;2023-03-01T08:12:03;24.03;;;16.67;;
10657;SDS011;5377;43.276;26.930;2023-03-01T08:14:30;20.23;;;15.57;;
10657;SDS011;5377;43.276;26.930;2023-03-01T08:16:57;18.67;;;14.83;;
10657;SDS011;5377;43.276;26.930;2023-03-01T08:19:24;21.43;;;17.10;;
10657;SDS011;5377;43.276;26.930;2023-03-01T08:21:53;21.00;;;15.33;;
10657;SDS011;5377;43.276;26.930;2023-03-01T08:24:20;17.53;;;13.27;;
10657;SDS011;5377;43.276;26.930;2023-03-01T08:26:49;19.50;;;16.27;;
10657;SDS011;5377;43.276;26.930;2023-03-01T08:29:16;22.98;;;20.63;;
10657;SDS011;5377;43.276;26.930;2023-03-01T08:31:42;19.73;;;15.80;;
10657;SDS011;5377;43.276;26.930;2023-03-01T08:34:13;20.07;;;15.40;;
10657;SDS011;5377;43.276;26.930;2023-03-01T08:36:41;19.27;;;15.43;;
10657;SDS011;5377;43.276;26.930;2023-03-01T08:39:10;17.50;;;14.77;;
10657;SDS011;5377;43.276;26.930;2023-03-01T08:41:38;19.87;;;14.30;;
10657;SDS011;5377;43.276;26.930;2023-03-01T08:44:07;24.07;;;16.20;;
10657;SDS011;5377;43.276;26.930;2023-03-01T08:46:36;20.80;;;14.93;;
10657;SDS011;5377;43.276;26.930;2023-03-01T08:49:05;22.07;;;14.90;;
10657;SDS011;5377;43.276;26.930;2023-03-01T08:51:33;19.53;;;14.53;;
10657;SDS011;5377;43.276;26.930;2023-03-01T08:54:02;17.77;;;13.17;;
10657;SDS011;5377;43.276;26.930;2023-03-01T08:56:28;17.60;;;12.60;;
10657;SDS011;5377;43.276;26.930;2023-03-01T08:58:55;16.30;;;12.40;;
10657;SDS011;5377;43.276;26.930;2023-03-01T09:01:23;20.63;;;14.27;;
10657;SDS011;5377;43.276;26.930;2023-03-01T09:03:50;16.23;;;13.97;;
10657;SDS011;5377;43.276;26.930;2023-03-01T09:06:17;16.53;;;13.07;;
10657;SDS011;5377;43.276;26.930;2023-03-01T09:08:45;18.43;;;13.50;;
10657;SDS011;5377;43.276;26.930;2023-03-01T09:11:14;19.63;;;13.87;;
10657;SDS011;5377;43.276;26.930;2023-03-01T09:13:42;19.13;;;13.67;;
10657;SDS011;5377;43.276;26.930;2023-03-01T09:16:10;16.97;;;12.73;;
10657;SDS011;5377;43.276;26.930;2023-03-01T09:18:39;15.93;;;12.30;;
10657;SDS011;5377;43.276;26.930;2023-03-01T09:21:07;21.30;;;14.83;;
10657;SDS011;5377;43.276;26.930;2023-03-01T09:23:36;17.03;;;11.53;;
10657;SDS011;5377;43.276;26.930;2023-03-01T09:26:04;16.03;;;12.37;;
10657;SDS011;5377;43.276;26.930;2023-03-01T09:28:33;14.80;;;12.20;;
10657;SDS011;5377;43.276;26.930;2023-03-01T09:31:00;17.73;;;12.70;;
10657;SDS011;5377;43.276;26.930;2023-03-01T09:33:28;19.10;;;16.13;;
10657;SDS011;5377;43.276;26.930;2023-03-01T09:35:57;30.27;;;22.07;;
10657;SDS011;5377;43.276;26.930;2023-03-01T09:38:24;24.23;;;17.33;;
10657;SDS011;5377;43.276;26.930;2023-03-01T09:40:51;18.93;;;14.60;;
10657;SDS011;5377;43.276;26.930;2023-03-01T09:43:20;15.43;;;12.77;;
10657;SDS011;5377;43.276;26.930;2023-03-01T09:45:53;16.77;;;12.60;;
10657;SDS011;5377;43.276;26.930;2023-03-01T09:48:23;20.43;;;15.50;;
10657;SDS011;5377;43.276;26.930;2023-03-01T09:50:53;20.43;;;14.57;;
10657;SDS011;5377;43.276;26.930;2023-03-01T09:53:23;18.07;;;13.77;;
10657;SDS011;5377;43.276;26.930;2023-03-01T09:56:00;18.70;;;14.17;;
10657;SDS011;5377;43.276;26.930;2023-03-01T09:58:39;17.03;;;13.37;;
10657;SDS011;5377;43.276;26.930;2023-03-01T10:01:23;18.17;;;13.23;;
10657;SDS011;5377;43.276;26.930;2023-03-01T10:04:05;20.37;;;14.53;;
10657;SDS011;5377;43.276;26.930;2023-03-01T10:06:45;20.80;;;14.97;;
10657;SDS011;5377;43.276;26.930;2023-03-01T10:09:25;24.47;;;17.97;;
10657;SDS011;5377;43.276;26.930;2023-03-01T10:11:56;19.20;;;13.40;;
10657;SDS011;5377;43.276;26.930;2023-03-01T10:14:27;26.77;;;18.43;;
10657;SDS011;5377;43.276;26.930;2023-03-01T10:16:59;21.00;;;14.60;;
10657;SDS011;5377;43.276;26.930;2023-03-01T10:19:30;19.07;;;13.73;;
10657;SDS011;5377;43.276;26.930;2023-03-01T10:22:00;19.43;;;15.13;;
10657;SDS011;5377;43.276;26.930;2023-03-01T10:24:35;28.10;;;20.87;;
10657;SDS011;5377;43.276;26.930;2023-03-01T10:27:04;26.87;;;19.07;;
10657;SDS011;5377;43.276;26.930;2023-03-01T10:29:37;18.67;;;13.90;;
10657;SDS011;5377;43.276;26.930;2023-03-01T10:32:09;20.50;;;13.83;;
10657;SDS011;5377;43.276;26.930;2023-03-01T10:34:37;17.60;;;13.10;;
10657;SDS011;5377;43.276;26.930;2023-03-01T10:37:08;23.33;;;14.10;;
10657;SDS011;5377;43.276;26.930;2023-03-01T10:39:37;22.77;;;15.10;;
10657;SDS011;5377;43.276;26.930;2023-03-01T10:42:24;20.83;;;14.40;;
10657;SDS011;5377;43.276;26.930;2023-03-01T10:44:53;19.20;;;13.97;;
10657;SDS011;5377;43.276;26.930;2023-03-01T10:47:21;19.10;;;15.47;;
10657;SDS011;5377;43.276;26.930;2023-03-01T10:49:53;19.77;;;15.10;;
10657;SDS011;5377;43.276;26.930;2023-03-01T10:52:26;20.37;;;14.90;;
10657;SDS011;5377;43.276;26.930;2023-03-01T10:54:57;22.00;;;16.50;;
10657;SDS011;5377;43.276;26.930;2023-03-01T10:57:33;20.97;;;16.77;;
10657;SDS011;5377;43.276;26.930;2023-03-01T11:00:15;21.67;;;15.00;;
10657;SDS011;5377;43.276;26.930;2023-03-01T11:02:50;21.40;;;14.67;;
10657;SDS011;5377;43.276;26.930;2023-03-01T11:05:27;21.43;;;14.20;;
10657;SDS011;5377;43.276;26.930;2023-03-01T11:07:56;20.80;;;15.60;;
10657;SDS011;5377;43.276;26.930;2023-03-01T11:10:26;18.83;;;13.83;;
10657;SDS011;5377;43.276;26.930;2023-03-01T11:12:54;21.93;;;14.87;;
10657;SDS011;5377;43.276;26.930;2023-03-01T11:15:33;22.70;;;17.50;;
10657;SDS011;5377;43.276;26.930;2023-03-01T11:18:00;20.27;;;15.07;;
10657;SDS011;5377;43.276;26.930;2023-03-01T11:20:29;23.20;;;15.60;;
10657;SDS011;5377;43.276;26.930;2023-03-01T11:22:59;25.37;;;16.73;;
10657;SDS011;5377;43.276;26.930;2023-03-01T11:25:31;18.60;;;15.27;;
10657;SDS011;5377;43.276;26.930;2023-03-01T11:28:01;19.83;;;14.47;;
10657;SDS011;5377;43.276;26.930;2023-03-01T11:30:31;19.50;;;15.00;;
10657;SDS011;5377;43.276;26.930;2023-03-01T11:33:08;23.07;;;15.67;;
10657;SDS011;5377;43.276;26.930;2023-03-01T11:35:45;20.37;;;15.93;;
10657;SDS011;5377;43.276;26.930;2023-03-01T11:38:21;22.77;;;15.37;;
10657;SDS011;5377;43.276;26.930;2023-03-01T11:40:52;21.03;;;16.63;;
10657;SDS011;5377;43.276;26.930;2023-03-01T11:43:26;27.30;;;16.93;;
10657;SDS011;5377;43.276;26.930;2023-03-01T11:46:11;23.37;;;16.43;;
10657;SDS011;5377;43.276;26.930;2023-03-01T11:48:57;28.23;;;20.67;;
10657;SDS011;5377;43.276;26.930;2023-03-01T11:51:41;23.03;;;18.37;;
10657;SDS011;5377;43.276;26.930;2023-03-01T11:54:21;31.87;;;17.30;;
10657;SDS011;5377;43.276;26.930;2023-03-01T11:57:00;28.90;;;18.50;;
10657;SDS011;5377;43.276;26.930;2023-03-01T11:59:45;26.23;;;18.93;;
10657;SDS011;5377;43.276;26.930;2023-03-01T12:02:29;32.20;;;19.93;;
10657;SDS011;5377;43.276;26.930;2023-03-01T12:05:17;28.40;;;17.60;;
10657;SDS011;5377;43.276;26.930;2023-03-01T12:07:52;27.33;;;19.27;;
10657;SDS011;5377;43.276;26.930;2023-03-01T12:10:31;29.13;;;17.47;;
10657;SDS011;5377;43.276;26.930;2023-03-01T12:13:21;27.77;;;17.03;;
10657;SDS011;5377;43.276;26.930;2023-03-01T12:16:03;30.23;;;19.37;;
10657;SDS011;5377;43.276;26.930;2023-03-01T12:21:33;27.50;;;17.23;;
10657;SDS011;5377;43.276;26.930;2023-03-01T12:27:04;30.53;;;17.97;;
10657;SDS011;5377;43.276;26.930;2023-03-01T12:29:43;29.47;;;19.97;;
10657;SDS011;5377;43.276;26.930;2023-03-01T12:32:21;24.90;;;16.73;;
10657;SDS011;5377;43.276;26.930;2023-03-01T12:35:04;26.47;;;17.73;;
10657;SDS011;5377;43.276;26.930;2023-03-01T12:37:42;27.23;;;16.43;;
10657;SDS011;5377;43.276;26.930;2023-03-01T12:40:30;28.57;;;17.97;;
10657;SDS011;5377;43.276;26.930;2023-03-01T12:43:07;28.57;;;17.60;;
10657;SDS011;5377;43.276;26.930;2023-03-01T12:45:57;24.60;;;16.53;;
10657;SDS011;5377;43.276;26.930;2023-03-01T12:48:39;26.57;;;15.53;;
10657;SDS011;5377;43.276;26.930;2023-03-01T12:51:14;27.43;;;16.37;;
10657;SDS011;5377;43.276;26.930;2023-03-01T12:53:45;24.43;;;14.40;;
10657;SDS011;5377;43.276;26.930;2023-03-01T12:56:19;22.70;;;15.77;;
10657;SDS011;5377;43.276;26.930;2023-03-01T12:58:51;24.70;;;17.07;;
10657;SDS011;5377;43.276;26.930;2023-03-01T13:01:35;22.07;;;16.33;;
10657;SDS011;5377;43.276;26.930;2023-03-01T13:04:18;22.47;;;16.43;;
10657;SDS011;5377;43.276;26.930;2023-03-01T13:06:57;26.33;;;17.53;;
10657;SDS011;5377;43.276;26.930;2023-03-01T13:09:33;23.60;;;16.50;;
10657;SDS011;5377;43.276;26.930;2023-03-01T13:15:13;28.23;;;17.90;;
10657;SDS011;5377;43.276;26.930;2023-03-01T13:17:53;23.37;;;17.10;;
10657;SDS011;5377;43.276;26.930;2023-03-01T13:20:22;25.77;;;17.77;;
10657;SDS011;5377;43.276;26.930;2023-03-01T13:23:00;27.23;;;17.77;;
10657;SDS011;5377;43.276;26.930;2023-03-01T13:25:29;28.37;;;21.03;;
10657;SDS011;5377;43.276;26.930;2023-03-01T13:28:32;38.10;;;20.80;;
10657;SDS011;5377;43.276;26.930;2023-03-01T13:31:06;27.47;;;18.43;;
10657;SDS011;5377;43.276;26.930;2023-03-01T13:33:41;30.37;;;19.60;;
10657;SDS011;5377;43.276;26.930;2023-03-01T13:36:10;27.77;;;18.30;;
10657;SDS011;5377;43.276;26.930;2023-03-01T13:38:59;27.23;;;18.63;;
10657;SDS011;5377;43.276;26.930;2023-03-01T13:44:19;29.83;;;22.73;;
10657;SDS011;5377;43.276;26.930;2023-03-01T13:46:51;27.43;;;20.80;;
10657;SDS011;5377;43.276;26.930;2023-03-01T13:49:21;31.33;;;20.47;;
10657;SDS011;5377;43.276;26.930;2023-03-01T13:51:51;29.67;;;20.90;;
10657;SDS011;5377;43.276;26.930;2023-03-01T13:54:21;32.33;;;22.87;;
10657;SDS011;5377;43.276;26.930;2023-03-01T13:56:52;31.33;;;19.90;;
10657;SDS011;5377;43.276;26.930;2023-03-01T13:59:21;28.37;;;20.27;;
10657;SDS011;5377;43.276;26.930;2023-03-01T14:01:54;33.27;;;22.13;;
10657;SDS011;5377;43.276;26.930;2023-03-01T14:04:24;33.43;;;21.83;;
10657;SDS011;5377;43.276;26.930;2023-03-01T14:07:08;33.33;;;21.20;;
10657;SDS011;5377;43.276;26.930;2023-03-01T14:09:36;63.83;;;38.27;;
10657;SDS011;5377;43.276;26.930;2023-03-01T14:12:12;32.73;;;23.93;;
10657;SDS011;5377;43.276;26.930;2023-03-01T14:14:52;31.80;;;23.23;;
10657;SDS011;5377;43.276;26.930;2023-03-01T14:20:26;35.77;;;22.27;;
10657;SDS011;5377;43.276;26.930;2023-03-01T14:22:56;39.83;;;24.77;;
10657;SDS011;5377;43.276;26.930;2023-03-01T14:25:26;37.87;;;24.70;;
10657;SDS011;5377;43.276;26.930;2023-03-01T14:28:03;32.00;;;22.83;;
10657;SDS011;5377;43.276;26.930;2023-03-01T14:30:41;33.67;;;20.30;;
10657;SDS011;5377;43.276;26.930;2023-03-01T14:33:18;38.27;;;26.33;;
10657;SDS011;5377;43.276;26.930;2023-03-01T14:35:53;40.40;;;31.67;;
10657;SDS011;5377;43.276;26.930;2023-03-01T14:38:23;39.00;;;29.07;;
10657;SDS011;5377;43.276;26.930;2023-03-01T14:40:57;38.97;;;29.87;;
10657;SDS011;5377;43.276;26.930;2023-03-01T14:43:27;31.10;;;24.30;;
10657;SDS011;5377;43.276;26.930;2023-03-01T14:45:56;34.57;;;23.83;;
10657;SDS011;5377;43.276;26.930;2023-03-01T14:48:23;33.43;;;24.87;;
10657;SDS011;5377;43.276;26.930;2023-03-01T14:50:54;39.17;;;26.30;;
10657;SDS011;5377;43.276;26.930;2023-03-01T14:53:22;33.17;;;25.07;;
10657;SDS011;5377;43.276;26.930;2023-03-01T14:55:52;35.53;;;23.00;;
10657;SDS011;5377;43.276;26.930;2023-03-01T14:58:20;33.57;;;23.10;;
10657;SDS011;5377;43.276;26.930;2023-03-01T15:00:50;31.27;;;22.77;;